Time;durP1;ratioP1;P1;durP2;ratioP2;P2;SDS_P1;SDS_P2;PMS_P1;PMS_P2;Temp;Humidity;BMP_temperature;BMP_pressure;BME280_temperature;BME280_humidity;BME280_pressure;Samples;Min_cycle;Max_cycle;Signal;HPM_P1;HPM_P2
2022/03/21 00:00:08;;;;;;;;;;;;;;;;;;1050501;28;4023;-71
2022/03/21 00:01:04;;;;;;;;;;;;;;;;;;1051302;28;4122;-71
2022/03/21 00:01:35;;;;;;;;;;;;;;;;;;1049764;28;2612;-71
2022/03/21 00:02:05;;;;;;;;;;;;;;;;;;1049008;28;3804;-71
2022/03/21 00:02:36;;;;;;;;;;;;;;;;;;1051420;28;2120;-72
2022/03/21 00:03:07;;;;;;;;;;;;;;;;;;1050780;27;3837;-70
2022/03/21 00:03:38;;;;;;;;;;;;;;;;;;1056091;27;2434;-71
2022/03/21 00:04:08;;;;;;;;;;;;;;;;;;1054631;27;4097;-70
2022/03/21 00:04:38;;;;;;;;;;;;;;;;;;1055639;27;3056;-71
2022/03/21 00:05:10;;;;;;;;;;;;;;;;;;1053618;27;3813;-71
2022/03/21 00:05:40;;;;;;;;;;;;;;;;;;1056078;27;2934;-71
2022/03/21 00:06:11;;;;;;;;;;;;;;;;;;1056849;27;4067;-71
2022/03/21 00:06:41;;;;;;;;;;;;;;;;;;1056752;27;2201;-71
2022/03/21 00:07:11;;;;;;;;;;;;;;;;;;1055185;27;4031;-71
2022/03/21 00:07:41;;;;;;;;;;;;;;;;;;1055862;27;2102;-71
2022/03/21 00:08:13;;;;;;;;;;;;;;;;;;1054921;27;3846;-72
2022/03/21 00:08:43;;;;;;;;;;;;;;;;;;1055624;27;2963;-71
2022/03/21 00:09:14;;;;;;;;;;;;;;;;;;1055074;27;3829;-71
2022/03/21 00:09:44;;;;;;;;;;;;;;;;;;1055929;27;2794;-72
2022/03/21 00:10:14;;;;;;;;;;;;;;;;;;1055289;27;3808;-71
2022/03/21 00:10:45;;;;;;;;;;;;;;;;;;1055260;27;2615;-71
2022/03/21 00:11:16;;;;;;;;;;;;;;;;;;1055080;28;4106;-71
2022/03/21 00:11:46;;;;;;;;;;;;;;;;;;1056046;27;1882;-71
2022/03/21 00:12:16;;;;;;;;;;;;;;;;;;1055843;27;3946;-71
2022/03/21 00:12:46;;;;;;;;;;;;;;;;;;1055638;27;2482;-71
2022/03/21 00:13:17;;;;;;;;;;;;;;;;;;1054819;27;3899;-71
2022/03/21 00:13:49;;;;;;;;;;;;;;;;;;1053834;27;3234;-71
2022/03/21 00:14:20;;;;;;;;;;;;;;;;;;1054522;27;3574;-71
2022/03/21 00:14:50;;;;;;;;;;;;;;;;;;1054705;27;4234;-71
2022/03/21 00:15:22;;;;;;;;;;;;;;;;;;1053788;27;2861;-72
2022/03/21 00:15:53;;;;;;;;;;;;;;;;;;1055433;27;4168;-70
2022/03/21 00:16:24;;;;;;;;;;;;;;;;;;1055152;27;2242;-70
2022/03/21 00:16:55;;;;;;;;;;;;;;;;;;1053567;27;4045;-71
2022/03/21 00:17:25;;;;;;;;;;;;;;;;;;1054481;27;3204;-71
2022/03/21 00:17:55;;;;;;;;;;;;;;;;;;1054321;27;3868;-72
2022/03/21 00:18:26;;;;;;;;;;;;;;;;;;1055300;27;2733;-71
2022/03/21 00:18:56;;;;;;;;;;;;;;;;;;1053117;27;4021;-70
2022/03/21 00:19:26;;;;;;;;;;;;;;;;;;1055154;27;2869;-72
2022/03/21 00:19:56;;;;;;;;;;;;;;;;;;1055134;27;4365;-71
2022/03/21 00:20:27;;;;;;;;;;;;;;;;;;1055426;27;1927;-71
2022/03/21 00:20:57;;;;;;;;;;;;;;;;;;1054449;27;3907;-71
2022/03/21 00:21:28;;;;;;;;;;;;;;;;;;1057379;27;2480;-72
2022/03/21 00:21:58;;;;;;;;;;;;;;;;;;1054500;27;3838;-72
2022/03/21 00:22:28;;;;;;;;;;;;;;;;;;1055881;27;1897;-72
2022/03/21 00:22:59;;;;;;;;;;;;;;;;;;1056552;27;4037;-71
2022/03/21 00:23:30;;;;;;;;;;;;;;;;;;1055950;27;2682;-71
2022/03/21 00:24:00;;;;;;;;;;;;;;;;;;1055099;27;3889;-71
2022/03/21 00:24:31;;;;;;;;;;;;;;;;;;1056200;27;2116;-71
2022/03/21 00:25:01;;;;;;;;;;;;;;;;;;1055030;27;4144;-72
2022/03/21 00:25:32;;;;;;;;;;;;;;;;;;1055076;27;2620;-71
2022/03/21 00:26:02;;;;;;;;;;;;;;;;;;1052659;27;3918;-71
2022/03/21 00:26:33;;;;;;;;;;;;;;;;;;1053552;27;2784;-71
2022/03/21 00:27:03;;;;;;;;;;;;;;;;;;1053144;27;3887;-71
2022/03/21 00:27:34;;;;;;;;;;;;;;;;;;1054404;28;1885;-73
2022/03/21 00:28:05;;;;;;;;;;;;;;;;;;1045413;28;5029;-73
2022/03/21 00:28:35;;;;;;;;;;;;;;;;;;1045689;28;2605;-70
2022/03/21 00:29:06;;;;;;;;;;;;;;;;;;1045486;28;4168;-70
2022/03/21 00:29:36;;;;;;;;;;;;;;;;;;1051583;27;2864;-71
2022/03/21 00:30:07;;;;;;;;;;;;;;;;;;1054572;27;3954;-70
2022/03/21 00:30:44;;;;;;;;;;;;;;;;;;1054917;27;3086;-71
2022/03/21 00:31:14;;;;;;;;;;;;;;;;;;1053385;27;4004;-71
2022/03/21 00:31:44;;;;;;;;;;;;;;;;;;1055743;28;2520;-71
2022/03/21 00:32:15;;;;;;;;;;;;;;;;;;1054717;27;3729;-70
2022/03/21 00:32:46;;;;;;;;;;;;;;;;;;1055648;27;2192;-71
2022/03/21 00:33:17;;;;;;;;;;;;;;;;;;1057065;27;3932;-70
2022/03/21 00:33:48;;;;;;;;;;;;;;;;;;1054781;28;2570;-71
2022/03/21 00:34:19;;;;;;;;;;;;;;;;;;1054747;27;3692;-71
2022/03/21 00:34:49;;;;;;;;;;;;;;;;;;1054589;27;3886;-70
2022/03/21 00:35:20;;;;;;;;;;;;;;;;;;1055660;27;3223;-72
2022/03/21 00:35:50;;;;;;;;;;;;;;;;;;1055097;27;3881;-71
2022/03/21 00:36:21;;;;;;;;;;;;;;;;;;1055194;27;2635;-72
2022/03/21 00:36:51;;;;;;;;;;;;;;;;;;1053371;27;3892;-71
2022/03/21 00:37:23;;;;;;;;;;;;;;;;;;1053850;27;3005;-70
2022/03/21 00:37:53;;;;;;;;;;;;;;;;;;1055582;28;3844;-71
2022/03/21 00:38:24;;;;;;;;;;;;;;;;;;1054799;27;2274;-70
2022/03/21 00:38:54;;;;;;;;;;;;;;;;;;1053914;27;3998;-71
2022/03/21 00:39:25;;;;;;;;;;;;;;;;;;1054779;27;3717;-71
2022/03/21 00:39:55;;;;;;;;;;;;;;;;;;1054380;27;3909;-71
2022/03/21 00:40:25;;;;;;;;;;;;;;;;;;1052509;28;2891;-72
2022/03/21 00:40:56;;;;;;;;;;;;;;;;;;1052962;28;3974;-71
2022/03/21 00:41:28;;;;;;;;;;;;;;;;;;1053431;27;3501;-70
2022/03/21 00:41:59;;;;;;;;;;;;;;;;;;1053733;28;3876;-72
2022/03/21 00:42:29;;;;;;;;;;;;;;;;;;1054825;27;2439;-71
2022/03/21 00:43:01;;;;;;;;;;;;;;;;;;1055256;27;3882;-71
2022/03/21 00:43:31;;;;;;;;;;;;;;;;;;1053448;28;2874;-71
2022/03/21 00:44:02;;;;;;;;;;;;;;;;;;1052826;28;4122;-71
2022/03/21 00:44:33;;;;;;;;;;;;;;;;;;1053342;28;3091;-71
2022/03/21 00:45:10;;;;;;;;;;;;;;;;;;1051412;28;3845;-71
2022/03/21 00:45:41;;;;;;;;;;;;;;;;;;1047709;28;3077;-72
2022/03/21 00:46:11;;;;;;;;;;;;;;;;;;1045891;28;4024;-71
2022/03/21 00:46:41;;;;;;;;;;;;;;;;;;1047892;28;2358;-71
2022/03/21 00:47:15;;;;;;;;;;;;;;;;;;1049042;28;3831;-70
2022/03/21 00:47:47;;;;;;;;;;;;;;;;;;1047022;28;3011;-72
2022/03/21 00:48:17;;;;;;;;;;;;;;;;;;1046172;28;3881;-71
2022/03/21 00:48:48;;;;;;;;;;;;;;;;;;1049608;28;2249;-71
2022/03/21 00:49:18;;;;;;;;;;;;;;;;;;1045853;28;3685;-71
2022/03/21 00:49:48;;;;;;;;;;;;;;;;;;1047665;28;3976;-70
2022/03/21 00:50:19;;;;;;;;;;;;;;;;;;1048111;28;2665;-71
2022/03/21 00:50:49;;;;;;;;;;;;;;;;;;1049579;28;3979;-71
2022/03/21 00:51:20;;;;;;;;;;;;;;;;;;1049777;28;1685;-72
2022/03/21 00:51:50;;;;;;;;;;;;;;;;;;1049536;28;3835;-71
2022/03/21 00:52:20;;;;;;;;;;;;;;;;;;1048841;28;2254;-70
2022/03/21 00:52:54;;;;;;;;;;;;;;;;;;1049325;28;3780;-71
2022/03/21 00:53:25;;;;;;;;;;;;;;;;;;1048862;28;2639;-71
2022/03/21 00:53:55;;;;;;;;;;;;;;;;;;1049310;28;4049;-70
2022/03/21 00:54:25;;;;;;;;;;;;;;;;;;1050186;28;1748;-71
2022/03/21 00:54:56;;;;;;;;;;;;;;;;;;1047861;28;3937;-72
2022/03/21 00:55:28;;;;;;;;;;;;;;;;;;1047503;28;2387;-71
2022/03/21 00:55:59;;;;;;;;;;;;;;;;;;1049454;28;4036;-71
2022/03/21 00:56:29;;;;;;;;;;;;;;;;;;1049252;28;2763;-71
2022/03/21 00:56:59;;;;;;;;;;;;;;;;;;1045107;28;4229;-73
2022/03/21 00:57:29;;;;;;;;;;;;;;;;;;1049940;28;2515;-71
2022/03/21 00:58:00;;;;;;;;;;;;;;;;;;1047887;28;4092;-71
2022/03/21 00:58:30;;;;;;;;;;;;;;;;;;1048085;28;2659;-72
2022/03/21 00:59:00;;;;;;;;;;;;;;;;;;1048815;28;4017;-72
2022/03/21 00:59:31;;;;;;;;;;;;;;;;;;1049885;28;2769;-72
2022/03/21 01:00:03;;;;;;;;;;;;;;;;;;1049161;28;4021;-71
2022/03/21 01:00:33;;;;;;;;;;;;;;;;;;1049403;28;2720;-72
2022/03/21 01:01:04;;;;;;;;;;;;;;;;;;1047968;28;3885;-71
2022/03/21 01:01:34;;;;;;;;;;;;;;;;;;1049209;28;1608;-73
2022/03/21 01:02:04;;;;;;;;;;;;;;;;;;1049093;28;4042;-71
2022/03/21 01:02:35;;;;;;;;;;;;;;;;;;1050685;28;1648;-73
2022/03/21 01:03:06;;;;;;;;;;;;;;;;;;1048626;28;4164;-71
2022/03/21 01:03:36;;;;;;;;;;;;;;;;;;1049189;28;3048;-71
2022/03/21 01:04:06;;;;;;;;;;;;;;;;;;1048156;28;3814;-72
2022/03/21 01:04:36;;;;;;;;;;;;;;;;;;1049642;28;1648;-72
2022/03/21 01:05:08;;;;;;;;;;;;;;;;;;1048140;28;3890;-71
2022/03/21 01:05:38;;;;;;;;;;;;;;;;;;1048937;28;2459;-71
2022/03/21 01:06:08;;;;;;;;;;;;;;;;;;1049770;28;4372;-71
2022/03/21 01:06:39;;;;;;;;;;;;;;;;;;1050581;28;1810;-72
2022/03/21 01:07:09;;;;;;;;;;;;;;;;;;1048439;28;3931;-71
2022/03/21 01:07:40;;;;;;;;;;;;;;;;;;1049407;28;2510;-71
2022/03/21 01:08:11;;;;;;;;;;;;;;;;;;1048578;28;3906;-70
2022/03/21 01:08:41;;;;;;;;;;;;;;;;;;1046502;28;2891;-71
2022/03/21 01:09:14;;;;;;;;;;;;;;;;;;1047742;28;4028;-71
2022/03/21 01:09:44;;;;;;;;;;;;;;;;;;1049861;28;2336;-70
2022/03/21 01:10:16;;;;;;;;;;;;;;;;;;1047712;28;3871;-71
2022/03/21 01:10:46;;;;;;;;;;;;;;;;;;1047274;28;2588;-72
2022/03/21 01:11:16;;;;;;;;;;;;;;;;;;1047523;28;3706;-72
2022/03/21 01:11:47;;;;;;;;;;;;;;;;;;1049258;28;2331;-70
2022/03/21 01:12:17;;;;;;;;;;;;;;;;;;1048680;28;4656;-71
2022/03/21 01:12:48;;;;;;;;;;;;;;;;;;1050158;28;2470;-72
2022/03/21 01:13:21;;;;;;;;;;;;;;;;;;1048465;28;3873;-73
2022/03/21 01:13:51;;;;;;;;;;;;;;;;;;1049490;28;3782;-71
2022/03/21 01:14:21;;;;;;;;;;;;;;;;;;1048286;28;2708;-72
2022/03/21 01:14:52;;;;;;;;;;;;;;;;;;1045999;28;3811;-71
2022/03/21 01:15:23;;;;;;;;;;;;;;;;;;1048684;28;2677;-71
2022/03/21 01:15:53;;;;;;;;;;;;;;;;;;1048056;28;4033;-71
2022/03/21 01:16:23;;;;;;;;;;;;;;;;;;1049266;28;1947;-71
2022/03/21 01:16:55;;;;;;;;;;;;;;;;;;1049045;28;3901;-72
2022/03/21 01:17:25;;;;;;;;;;;;;;;;;;1048272;28;2483;-70
2022/03/21 01:17:56;;;;;;;;;;;;;;;;;;1048184;28;3878;-72
2022/03/21 01:18:29;;;;;;;;;;;;;;;;;;1046226;28;2427;-71
2022/03/21 01:18:59;;;;;;;;;;;;;;;;;;1046011;28;3793;-71
2022/03/21 01:19:30;;;;;;;;;;;;;;;;;;1047900;28;2553;-73
2022/03/21 01:20:00;;;;;;;;;;;;;;;;;;1045498;28;3965;-71
2022/03/21 01:20:31;;;;;;;;;;;;;;;;;;1046379;28;2788;-72
2022/03/21 01:21:01;;;;;;;;;;;;;;;;;;1047662;28;3980;-72
2022/03/21 01:21:38;;;;;;;;;;;;;;;;;;1047476;28;2881;-71
2022/03/21 01:22:08;;;;;;;;;;;;;;;;;;1049459;28;3868;-72
2022/03/21 01:22:39;;;;;;;;;;;;;;;;;;1048224;28;2522;-71
2022/03/21 01:23:09;;;;;;;;;;;;;;;;;;1048437;28;4075;-71
2022/03/21 01:23:39;;;;;;;;;;;;;;;;;;1049136;28;2811;-72
2022/03/21 01:24:09;;;;;;;;;;;;;;;;;;1048272;28;4180;-71
2022/03/21 01:24:40;;;;;;;;;;;;;;;;;;1048682;28;2905;-71
2022/03/21 01:25:11;;;;;;;;;;;;;;;;;;1046106;28;3894;-71
2022/03/21 01:25:42;;;;;;;;;;;;;;;;;;1048745;28;2296;-71
2022/03/21 01:26:12;;;;;;;;;;;;;;;;;;1049111;28;4076;-71
2022/03/21 01:26:42;;;;;;;;;;;;;;;;;;1049886;28;1905;-72
2022/03/21 01:27:12;;;;;;;;;;;;;;;;;;1050055;28;4069;-71
2022/03/21 01:27:43;;;;;;;;;;;;;;;;;;1048777;28;2754;-71
2022/03/21 01:28:13;;;;;;;;;;;;;;;;;;1048216;28;3979;-71
2022/03/21 01:28:43;;;;;;;;;;;;;;;;;;1049644;28;2761;-71
2022/03/21 01:29:14;;;;;;;;;;;;;;;;;;1048685;28;3889;-73
2022/03/21 01:29:44;;;;;;;;;;;;;;;;;;1049440;28;2606;-75
2022/03/21 01:30:14;;;;;;;;;;;;;;;;;;1049528;28;3930;-74
2022/03/21 01:30:45;;;;;;;;;;;;;;;;;;1050021;28;1755;-72
2022/03/21 01:31:15;;;;;;;;;;;;;;;;;;1048786;28;4014;-73
2022/03/21 01:31:45;;;;;;;;;;;;;;;;;;1050162;28;2214;-74
2022/03/21 01:32:16;;;;;;;;;;;;;;;;;;1048338;28;4039;-72
2022/03/21 01:32:46;;;;;;;;;;;;;;;;;;1049186;28;2832;-72
2022/03/21 01:33:16;;;;;;;;;;;;;;;;;;1048401;28;4334;-73
2022/03/21 01:33:46;;;;;;;;;;;;;;;;;;1050062;28;1865;-72
2022/03/21 01:34:17;;;;;;;;;;;;;;;;;;1048534;28;3932;-73
2022/03/21 01:34:47;;;;;;;;;;;;;;;;;;1048847;28;2779;-72
2022/03/21 01:35:18;;;;;;;;;;;;;;;;;;1048176;28;3934;-73
2022/03/21 01:35:48;;;;;;;;;;;;;;;;;;1049381;28;4052;-73
2022/03/21 01:36:18;;;;;;;;;;;;;;;;;;1050075;28;2694;-73
2022/03/21 01:36:49;;;;;;;;;;;;;;;;;;1049447;28;3950;-72
2022/03/21 01:37:19;;;;;;;;;;;;;;;;;;1045011;28;2220;-72
2022/03/21 01:37:49;;;;;;;;;;;;;;;;;;1044606;28;3975;-73
2022/03/21 01:38:20;;;;;;;;;;;;;;;;;;1040759;28;1855;-74
2022/03/21 01:38:50;;;;;;;;;;;;;;;;;;1043703;28;3809;-73
2022/03/21 01:39:20;;;;;;;;;;;;;;;;;;1048080;28;2814;-74
2022/03/21 01:39:51;;;;;;;;;;;;;;;;;;1048804;28;4733;-72
2022/03/21 01:40:21;;;;;;;;;;;;;;;;;;1048544;28;2523;-73
2022/03/21 01:40:58;;;;;;;;;;;;;;;;;;1048401;28;3956;-73
2022/03/21 01:41:28;;;;;;;;;;;;;;;;;;1049518;28;2986;-73
2022/03/21 01:41:58;;;;;;;;;;;;;;;;;;1048853;28;4109;-72
2022/03/21 01:42:28;;;;;;;;;;;;;;;;;;1049487;28;2580;-73
2022/03/21 01:42:59;;;;;;;;;;;;;;;;;;1049056;28;3997;-72
2022/03/21 01:43:29;;;;;;;;;;;;;;;;;;1048774;28;2494;-73
2022/03/21 01:44:06;;;;;;;;;;;;;;;;;;1048798;28;3849;-72
2022/03/21 01:44:37;;;;;;;;;;;;;;;;;;1049621;28;2402;-73
2022/03/21 01:45:20;;;;;;;;;;;;;;;;;;1050271;28;3879;-73
2022/03/21 01:45:51;;;;;;;;;;;;;;;;;;1056609;28;3937;-72
2022/03/21 01:46:21;;;;;;;;;;;;;;;;;;1052918;28;2351;-74
2022/03/21 01:46:51;;;;;;;;;;;;;;;;;;1052538;28;4035;-73
2022/03/21 01:47:24;;;;;;;;;;;;;;;;;;1054231;28;1820;-74
2022/03/21 01:47:54;;;;;;;;;;;;;;;;;;1053454;28;4096;-73
2022/03/21 01:48:25;;;;;;;;;;;;;;;;;;1055456;28;2081;-72
2022/03/21 01:48:56;;;;;;;;;;;;;;;;;;1056391;28;3967;-73
2022/03/21 01:49:26;;;;;;;;;;;;;;;;;;1051049;28;2487;-74
2022/03/21 01:49:57;;;;;;;;;;;;;;;;;;1050423;28;3900;-74
2022/03/21 01:50:27;;;;;;;;;;;;;;;;;;1051462;28;2164;-72
2022/03/21 01:50:57;;;;;;;;;;;;;;;;;;1049665;28;3894;-74
2022/03/21 01:51:28;;;;;;;;;;;;;;;;;;1056451;28;3009;-72
2022/03/21 01:51:58;;;;;;;;;;;;;;;;;;1055994;28;3794;-70
2022/03/21 01:52:28;;;;;;;;;;;;;;;;;;1056048;28;2072;-72
2022/03/21 01:55:45;;;;;;;;;;;;;;;;;;1055317;28;3984;-72
2022/03/21 01:56:15;;;;;;;;;;;;;;;;;;1055521;28;3921;-73
2022/03/21 01:56:46;;;;;;;;;;;;;;;;;;1051714;28;2589;-73
2022/03/21 01:57:17;;;;;;;;;;;;;;;;;;1050878;28;3901;-72
2022/03/21 01:57:47;;;;;;;;;;;;;;;;;;1049968;28;2806;-73
2022/03/21 01:58:17;;;;;;;;;;;;;;;;;;1047568;28;3826;-73
2022/03/21 01:58:47;;;;;;;;;;;;;;;;;;1051599;28;2823;-72
2022/03/21 01:59:19;;;;;;;;;;;;;;;;;;1049989;28;3908;-72
2022/03/21 01:59:50;;;;;;;;;;;;;;;;;;1050237;28;3937;-72
2022/03/21 02:00:21;;;;;;;;;;;;;;;;;;1055806;28;2938;-73
2022/03/21 02:00:51;;;;;;;;;;;;;;;;;;1055190;28;4020;-72
2022/03/21 02:01:22;;;;;;;;;;;;;;;;;;1054754;28;2739;-72
2022/03/21 02:01:52;;;;;;;;;;;;;;;;;;1055180;28;3874;-72
2022/03/21 02:02:22;;;;;;;;;;;;;;;;;;1054920;28;2180;-72
2022/03/21 02:02:53;;;;;;;;;;;;;;;;;;1055162;28;3790;-73
2022/03/21 02:03:24;;;;;;;;;;;;;;;;;;1055434;27;2789;-74
2022/03/21 02:03:54;;;;;;;;;;;;;;;;;;1055393;28;3771;-72
2022/03/21 02:04:24;;;;;;;;;;;;;;;;;;1056047;28;2507;-73
2022/03/21 02:04:54;;;;;;;;;;;;;;;;;;1054563;28;3969;-72
2022/03/21 02:05:25;;;;;;;;;;;;;;;;;;1050112;28;1961;-72
2022/03/21 02:05:55;;;;;;;;;;;;;;;;;;1047910;28;4106;-72
2022/03/21 02:06:28;;;;;;;;;;;;;;;;;;1046458;28;2159;-73
2022/03/21 02:06:58;;;;;;;;;;;;;;;;;;1046448;28;3934;-73
2022/03/21 02:07:28;;;;;;;;;;;;;;;;;;1049631;28;4879;-72
2022/03/21 02:07:59;;;;;;;;;;;;;;;;;;1052456;28;4277;-73
2022/03/21 02:08:29;;;;;;;;;;;;;;;;;;1051597;28;2732;-72
2022/03/21 02:09:01;;;;;;;;;;;;;;;;;;1052061;28;3970;-72
2022/03/21 02:09:31;;;;;;;;;;;;;;;;;;1053132;28;2343;-72
2022/03/21 02:10:03;;;;;;;;;;;;;;;;;;1055743;28;3929;-72
2022/03/21 02:10:33;;;;;;;;;;;;;;;;;;1056271;28;2882;-73
2022/03/21 02:11:04;;;;;;;;;;;;;;;;;;1055485;28;3850;-72
2022/03/21 02:11:35;;;;;;;;;;;;;;;;;;1056274;28;2216;-72
2022/03/21 02:12:06;;;;;;;;;;;;;;;;;;1055062;28;3919;-73
2022/03/21 02:12:43;;;;;;;;;;;;;;;;;;1055911;28;2698;-74
2022/03/21 02:13:13;;;;;;;;;;;;;;;;;;1054415;28;3889;-74
2022/03/21 02:13:44;;;;;;;;;;;;;;;;;;1055373;27;2660;-72
2022/03/21 02:14:14;;;;;;;;;;;;;;;;;;1053865;27;4054;-72
2022/03/21 02:14:51;;;;;;;;;;;;;;;;;;1052922;28;3293;-74
2022/03/21 02:15:22;;;;;;;;;;;;;;;;;;1051352;28;3703;-73
2022/03/21 02:15:52;;;;;;;;;;;;;;;;;;1051839;28;4066;-73
2022/03/21 02:16:23;;;;;;;;;;;;;;;;;;1052047;28;2317;-73
2022/03/21 02:16:53;;;;;;;;;;;;;;;;;;1055109;28;3806;-73
2022/03/21 02:17:24;;;;;;;;;;;;;;;;;;1055757;28;2894;-74
2022/03/21 02:17:59;;;;;;;;;;;;;;;;;;1049242;28;4340;-74
2022/03/21 02:18:30;;;;;;;;;;;;;;;;;;1049788;28;2905;-73
2022/03/21 02:19:18;;;;;;;;;;;;;;;;;;1049621;28;4048;-73
2022/03/21 02:19:50;;;;;;;;;;;;;;;;;;1054273;28;4434;-72
2022/03/21 02:20:20;;;;;;;;;;;;;;;;;;1055792;28;2211;-73
2022/03/21 02:20:51;;;;;;;;;;;;;;;;;;1056717;27;3947;-72
2022/03/21 02:21:27;;;;;;;;;;;;;;;;;;1055401;27;2508;-72
2022/03/21 02:22:19;;;;;;;;;;;;;;;;;;1054535;27;3869;-74
2022/03/21 02:23:07;;;;;;;;;;;;;;;;;;1056362;27;4068;-72
2022/03/21 02:23:40;;;;;;;;;;;;;;;;;;1057354;27;2804;-73
2022/03/21 02:24:33;;;;;;;;;;;;;;;;;;1056034;27;3762;-74
2022/03/21 02:25:27;;;;;;;;;;;;;;;;;;1057351;27;4039;-73
2022/03/21 02:25:58;;;;;;;;;;;;;;;;;;1055500;27;4047;-73
2022/03/21 02:26:29;;;;;;;;;;;;;;;;;;1056220;27;2752;-74
2022/03/21 02:27:00;;;;;;;;;;;;;;;;;;1056401;27;4077;-72
2022/03/21 02:27:31;;;;;;;;;;;;;;;;;;1050258;28;3000;-73
2022/03/21 02:28:02;;;;;;;;;;;;;;;;;;1049928;28;4014;-72
2022/03/21 02:28:33;;;;;;;;;;;;;;;;;;1050235;28;3288;-73
2022/03/21 02:29:04;;;;;;;;;;;;;;;;;;1052136;28;4031;-73
2022/03/21 02:29:36;;;;;;;;;;;;;;;;;;1054503;27;2764;-73
2022/03/21 02:30:07;;;;;;;;;;;;;;;;;;1054372;27;4052;-73
2022/03/21 02:30:39;;;;;;;;;;;;;;;;;;1056516;27;2922;-73
2022/03/21 02:31:09;;;;;;;;;;;;;;;;;;1055679;27;4078;-72
2022/03/21 02:31:40;;;;;;;;;;;;;;;;;;1051091;28;2475;-73
2022/03/21 02:32:10;;;;;;;;;;;;;;;;;;1052201;28;3859;-74
2022/03/21 02:32:41;;;;;;;;;;;;;;;;;;1051184;28;2816;-74
2022/03/21 02:33:12;;;;;;;;;;;;;;;;;;1051587;28;3927;-73
2022/03/21 02:33:43;;;;;;;;;;;;;;;;;;1057314;27;2099;-74
2022/03/21 02:34:14;;;;;;;;;;;;;;;;;;1056226;27;3980;-73
2022/03/21 02:34:45;;;;;;;;;;;;;;;;;;1056372;27;1645;-73
2022/03/21 02:35:16;;;;;;;;;;;;;;;;;;1055698;27;3977;-73
2022/03/21 02:35:47;;;;;;;;;;;;;;;;;;1056824;27;2505;-74
2022/03/21 02:36:19;;;;;;;;;;;;;;;;;;1055323;27;3854;-73
2022/03/21 02:36:51;;;;;;;;;;;;;;;;;;1056215;27;3889;-73
2022/03/21 02:37:22;;;;;;;;;;;;;;;;;;1057152;27;2270;-72
2022/03/21 02:37:54;;;;;;;;;;;;;;;;;;1054528;28;4047;-72
2022/03/21 02:38:25;;;;;;;;;;;;;;;;;;1049881;28;2644;-72
2022/03/21 02:38:56;;;;;;;;;;;;;;;;;;1050138;28;4003;-73
2022/03/21 02:39:28;;;;;;;;;;;;;;;;;;1047217;28;2841;-72
2022/03/21 02:39:58;;;;;;;;;;;;;;;;;;1044197;28;3987;-72
2022/03/21 02:40:29;;;;;;;;;;;;;;;;;;1047393;28;2666;-74
2022/03/21 02:40:59;;;;;;;;;;;;;;;;;;1046331;28;4062;-74
2022/03/21 02:41:29;;;;;;;;;;;;;;;;;;1052247;28;3007;-71
2022/03/21 02:42:01;;;;;;;;;;;;;;;;;;1055691;27;4016;-74
2022/03/21 02:42:31;;;;;;;;;;;;;;;;;;1050996;28;2771;-72
2022/03/21 02:43:01;;;;;;;;;;;;;;;;;;1051758;28;4421;-73
2022/03/21 02:43:47;;;;;;;;;;;;;;;;;;1049027;28;2732;-72
2022/03/21 02:44:31;;;;;;;;;;;;;;;;;;1051023;28;3821;-72
2022/03/21 02:45:15;;;;;;;;;;;;;;;;;;1053408;28;3791;-72
2022/03/21 02:46:02;;;;;;;;;;;;;;;;;;1055176;27;4074;-74
2022/03/21 02:46:33;;;;;;;;;;;;;;;;;;1054440;27;3191;-71
2022/03/21 02:47:04;;;;;;;;;;;;;;;;;;1055339;27;3942;-75
2022/03/21 02:47:34;;;;;;;;;;;;;;;;;;1055099;27;2879;-72
2022/03/21 02:48:04;;;;;;;;;;;;;;;;;;1054286;27;3778;-71
2022/03/21 02:48:35;;;;;;;;;;;;;;;;;;1055475;27;3132;-72
2022/03/21 02:49:06;;;;;;;;;;;;;;;;;;1055604;27;4030;-72
2022/03/21 02:49:36;;;;;;;;;;;;;;;;;;1056806;27;1654;-72
2022/03/21 02:50:07;;;;;;;;;;;;;;;;;;1050805;28;3837;-74
2022/03/21 02:50:41;;;;;;;;;;;;;;;;;;1051345;28;2176;-74
2022/03/21 02:51:12;;;;;;;;;;;;;;;;;;1051395;28;3903;-73
2022/03/21 02:51:43;;;;;;;;;;;;;;;;;;1054127;28;2753;-73
2022/03/21 02:52:14;;;;;;;;;;;;;;;;;;1055204;28;3768;-74
2022/03/21 02:52:45;;;;;;;;;;;;;;;;;;1057023;27;2318;-73
2022/03/21 02:53:16;;;;;;;;;;;;;;;;;;1056170;27;4011;-73
2022/03/21 02:53:48;;;;;;;;;;;;;;;;;;1055848;27;1555;-73
2022/03/21 02:54:21;;;;;;;;;;;;;;;;;;1055968;27;4064;-73
2022/03/21 02:54:51;;;;;;;;;;;;;;;;;;1056387;27;3783;-74
2022/03/21 02:55:21;;;;;;;;;;;;;;;;;;1056222;27;1994;-74
2022/03/21 02:55:55;;;;;;;;;;;;;;;;;;1056257;27;3992;-73
2022/03/21 02:56:26;;;;;;;;;;;;;;;;;;1057141;27;1975;-72
2022/03/21 02:56:57;;;;;;;;;;;;;;;;;;1048308;28;3891;-73
2022/03/21 02:57:31;;;;;;;;;;;;;;;;;;1046928;28;3311;-72
2022/03/21 02:58:02;;;;;;;;;;;;;;;;;;1048210;28;4239;-73
2022/03/21 02:58:32;;;;;;;;;;;;;;;;;;1050437;28;2882;-73
2022/03/21 02:59:03;;;;;;;;;;;;;;;;;;1055836;27;3812;-72
2022/03/21 02:59:33;;;;;;;;;;;;;;;;;;1056355;27;2137;-73
2022/03/21 03:00:04;;;;;;;;;;;;;;;;;;1056016;27;3794;-73
2022/03/21 03:00:34;;;;;;;;;;;;;;;;;;1056730;27;2825;-71
2022/03/21 03:01:12;;;;;;;;;;;;;;;;;;1052110;27;3789;-73
2022/03/21 03:01:43;;;;;;;;;;;;;;;;;;1053711;28;2449;-74
2022/03/21 03:02:13;;;;;;;;;;;;;;;;;;1050208;28;3765;-73
2022/03/21 03:02:44;;;;;;;;;;;;;;;;;;1051834;28;2041;-73
2022/03/21 03:03:14;;;;;;;;;;;;;;;;;;1054287;28;3738;-72
2022/03/21 03:03:44;;;;;;;;;;;;;;;;;;1055203;28;2136;-73
2022/03/21 03:04:15;;;;;;;;;;;;;;;;;;1055671;27;3838;-73
2022/03/21 03:04:46;;;;;;;;;;;;;;;;;;1057220;27;2773;-73
2022/03/21 03:05:16;;;;;;;;;;;;;;;;;;1055231;28;3928;-73
2022/03/21 03:05:46;;;;;;;;;;;;;;;;;;1057747;27;2063;-73
2022/03/21 03:06:16;;;;;;;;;;;;;;;;;;1055363;27;3950;-73
2022/03/21 03:06:47;;;;;;;;;;;;;;;;;;1056309;27;2845;-73
2022/03/21 03:07:17;;;;;;;;;;;;;;;;;;1056592;27;4119;-74
2022/03/21 03:07:47;;;;;;;;;;;;;;;;;;1057913;27;2417;-72
2022/03/21 03:08:18;;;;;;;;;;;;;;;;;;1051551;28;3959;-74
2022/03/21 03:08:48;;;;;;;;;;;;;;;;;;1047981;28;4028;-72
2022/03/21 03:09:19;;;;;;;;;;;;;;;;;;1049245;28;2423;-74
2022/03/21 03:09:49;;;;;;;;;;;;;;;;;;1048493;28;3906;-73
2022/03/21 03:10:19;;;;;;;;;;;;;;;;;;1052720;28;2273;-73
2022/03/21 03:10:50;;;;;;;;;;;;;;;;;;1054536;28;4048;-72
2022/03/21 03:11:20;;;;;;;;;;;;;;;;;;1055430;27;2365;-73
2022/03/21 03:11:50;;;;;;;;;;;;;;;;;;1052684;28;3882;-72
2022/03/21 03:12:21;;;;;;;;;;;;;;;;;;1053831;28;1936;-73
2022/03/21 03:12:51;;;;;;;;;;;;;;;;;;1053077;28;4212;-73
2022/03/21 03:13:21;;;;;;;;;;;;;;;;;;1053537;28;3035;-73
2022/03/21 03:13:51;;;;;;;;;;;;;;;;;;1053746;28;4094;-73
2022/03/21 03:14:22;;;;;;;;;;;;;;;;;;1053407;28;2294;-73
2022/03/21 03:14:52;;;;;;;;;;;;;;;;;;1054444;28;3863;-74
2022/03/21 03:15:28;;;;;;;;;;;;;;;;;;1054599;28;3070;-73
2022/03/21 03:15:59;;;;;;;;;;;;;;;;;;1056098;27;4073;-73
2022/03/21 03:16:29;;;;;;;;;;;;;;;;;;1057230;27;2398;-73
2022/03/21 03:17:01;;;;;;;;;;;;;;;;;;1055348;27;3833;-72
2022/03/21 03:17:31;;;;;;;;;;;;;;;;;;1056577;27;2782;-74
2022/03/21 03:18:01;;;;;;;;;;;;;;;;;;1055152;27;3898;-73
2022/03/21 03:18:32;;;;;;;;;;;;;;;;;;1057035;27;2411;-74
2022/03/21 03:19:02;;;;;;;;;;;;;;;;;;1056179;27;4143;-72
2022/03/21 03:19:32;;;;;;;;;;;;;;;;;;1056409;27;2035;-72
2022/03/21 03:20:03;;;;;;;;;;;;;;;;;;1055244;27;3781;-74
2022/03/21 03:20:34;;;;;;;;;;;;;;;;;;1051772;28;2741;-74
2022/03/21 03:21:04;;;;;;;;;;;;;;;;;;1051778;28;4573;-72
2022/03/21 03:21:36;;;;;;;;;;;;;;;;;;1051811;28;2940;-73
2022/03/21 03:22:08;;;;;;;;;;;;;;;;;;1052064;28;3948;-72
2022/03/21 03:22:39;;;;;;;;;;;;;;;;;;1057529;27;2630;-73
2022/03/21 03:23:09;;;;;;;;;;;;;;;;;;1056183;27;4926;-73
2022/03/21 03:23:40;;;;;;;;;;;;;;;;;;1056766;27;2246;-72
2022/03/21 03:24:11;;;;;;;;;;;;;;;;;;1056308;27;3965;-73
2022/03/21 03:24:41;;;;;;;;;;;;;;;;;;1056587;27;3319;-72
2022/03/21 03:25:11;;;;;;;;;;;;;;;;;;1055821;27;3836;-73
2022/03/21 03:25:42;;;;;;;;;;;;;;;;;;1057040;27;2412;-74
2022/03/21 03:26:12;;;;;;;;;;;;;;;;;;1054794;27;3777;-74
2022/03/21 03:26:42;;;;;;;;;;;;;;;;;;1057300;27;2736;-73
2022/03/21 03:27:13;;;;;;;;;;;;;;;;;;1055460;27;3852;-73
2022/03/21 03:27:43;;;;;;;;;;;;;;;;;;1056247;27;2429;-72
2022/03/21 03:28:13;;;;;;;;;;;;;;;;;;1055069;27;3890;-73
2022/03/21 03:28:44;;;;;;;;;;;;;;;;;;1055947;27;3407;-73
2022/03/21 03:29:14;;;;;;;;;;;;;;;;;;1054381;27;3825;-73
2022/03/21 03:29:44;;;;;;;;;;;;;;;;;;1056874;27;2309;-73
2022/03/21 03:30:15;;;;;;;;;;;;;;;;;;1055757;27;3910;-73
2022/03/21 03:30:45;;;;;;;;;;;;;;;;;;1056321;27;2604;-73
2022/03/21 03:31:16;;;;;;;;;;;;;;;;;;1054919;27;3911;-73
2022/03/21 03:31:48;;;;;;;;;;;;;;;;;;1055721;27;2658;-72
2022/03/21 03:32:18;;;;;;;;;;;;;;;;;;1055282;27;4578;-72
2022/03/21 03:32:55;;;;;;;;;;;;;;;;;;1054973;28;4216;-73
2022/03/21 03:33:26;;;;;;;;;;;;;;;;;;1056229;27;2064;-73
2022/03/21 03:33:57;;;;;;;;;;;;;;;;;;1056416;27;4095;-74
2022/03/21 03:34:27;;;;;;;;;;;;;;;;;;1055238;27;2858;-73
2022/03/21 03:34:58;;;;;;;;;;;;;;;;;;1055617;27;3785;-73
2022/03/21 03:35:29;;;;;;;;;;;;;;;;;;1055413;27;2840;-73
2022/03/21 03:35:59;;;;;;;;;;;;;;;;;;1055752;27;4016;-73
2022/03/21 03:36:29;;;;;;;;;;;;;;;;;;1055586;27;1832;-72
2022/03/21 03:36:59;;;;;;;;;;;;;;;;;;1056273;27;3852;-74
2022/03/21 03:37:30;;;;;;;;;;;;;;;;;;1057962;27;2555;-73
2022/03/21 03:38:00;;;;;;;;;;;;;;;;;;1055590;27;3923;-74
2022/03/21 03:38:30;;;;;;;;;;;;;;;;;;1054943;27;2729;-72
2022/03/21 03:39:01;;;;;;;;;;;;;;;;;;1055063;27;3915;-72
2022/03/21 03:39:31;;;;;;;;;;;;;;;;;;1055798;27;2792;-73
2022/03/21 03:40:02;;;;;;;;;;;;;;;;;;1050545;28;3824;-73